sensor_id;sensor_type;location;lat;lon;timestamp;pressure;altitude;pressure_sealevel;temperature;humidity
5455;BME280;2750;49.050;9.250;2023-04-22T00:01:01;98137.63;;;15.10;89.87
5455;BME280;2750;49.050;9.250;2023-04-22T00:06:04;98133.28;;;14.87;90.31
5455;BME280;2750;49.050;9.250;2023-04-22T00:11:05;98121.28;;;14.95;90.26
5455;BME280;2750;49.050;9.250;2023-04-22T00:16:07;98125.56;;;14.61;90.02
5455;BME280;2750;49.050;9.250;2023-04-22T00:21:09;98122.59;;;14.90;90.09
5455;BME280;2750;49.050;9.250;2023-04-22T00:26:11;98124.50;;;14.99;90.43
5455;BME280;2750;49.050;9.250;2023-04-22T00:31:12;98122.28;;;15.05;90.14
5455;BME280;2750;49.050;9.250;2023-04-22T00:36:15;98121.78;;;14.65;89.82
5455;BME280;2750;49.050;9.250;2023-04-22T00:41:17;98122.09;;;14.84;89.73
5455;BME280;2750;49.050;9.250;2023-04-22T00:46:19;98116.88;;;14.84;90.08
5455;BME280;2750;49.050;9.250;2023-04-22T00:51:22;98120.09;;;14.53;91.79
5455;BME280;2750;49.050;9.250;2023-04-22T00:56:24;98120.31;;;14.85;90.17
5455;BME280;2750;49.050;9.250;2023-04-22T01:01:27;98119.06;;;15.02;89.15
5455;BME280;2750;49.050;9.250;2023-04-22T01:06:32;98113.59;;;14.94;89.86
5455;BME280;2750;49.050;9.250;2023-04-22T01:11:35;98111.94;;;15.04;89.43
5455;BME280;2750;49.050;9.250;2023-04-22T01:16:37;98108.38;;;14.94;88.88
5455;BME280;2750;49.050;9.250;2023-04-22T01:21:42;98108.09;;;14.86;89.42
5455;BME280;2750;49.050;9.250;2023-04-22T01:26:45;98109.91;;;14.96;89.44
5455;BME280;2750;49.050;9.250;2023-04-22T01:31:47;98110.13;;;14.93;89.52
5455;BME280;2750;49.050;9.250;2023-04-22T01:36:49;98117.03;;;14.94;89.50
5455;BME280;2750;49.050;9.250;2023-04-22T01:41:52;98111.44;;;14.99;89.45
5455;BME280;2750;49.050;9.250;2023-04-22T01:46:54;98111.69;;;15.07;89.55
5455;BME280;2750;49.050;9.250;2023-04-22T01:51:56;98112.78;;;15.04;89.13
5455;BME280;2750;49.050;9.250;2023-04-22T01:56:59;98110.13;;;14.93;89.74
5455;BME280;2750;49.050;9.250;2023-04-22T02:02:01;98116.38;;;14.79;89.82
5455;BME280;2750;49.050;9.250;2023-04-22T02:07:02;98116.63;;;14.76;89.45
5455;BME280;2750;49.050;9.250;2023-04-22T02:12:05;98120.41;;;14.72;89.69
5455;BME280;2750;49.050;9.250;2023-04-22T02:17:07;98127.50;;;14.59;89.45
5455;BME280;2750;49.050;9.250;2023-04-22T02:22:08;98130.53;;;14.53;88.83
5455;BME280;2750;49.050;9.250;2023-04-22T02:27:11;98135.63;;;14.31;89.24
5455;BME280;2750;49.050;9.250;2023-04-22T02:32:13;98140.09;;;14.42;89.76
5455;BME280;2750;49.050;9.250;2023-04-22T02:37:16;98137.63;;;14.27;90.01
5455;BME280;2750;49.050;9.250;2023-04-22T02:42:19;98137.09;;;14.35;89.27
5455;BME280;2750;49.050;9.250;2023-04-22T02:47:21;98147.53;;;14.35;89.48
5455;BME280;2750;49.050;9.250;2023-04-22T02:52:22;98148.38;;;14.23;89.80
5455;BME280;2750;49.050;9.250;2023-04-22T02:57:25;98150.91;;;14.12;89.74
5455;BME280;2750;49.050;9.250;2023-04-22T03:02:27;98148.75;;;14.06;89.50
5455;BME280;2750;49.050;9.250;2023-04-22T03:07:28;98146.16;;;14.06;89.73
5455;BME280;2750;49.050;9.250;2023-04-22T03:12:31;98143.34;;;13.96;89.93
5455;BME280;2750;49.050;9.250;2023-04-22T03:17:32;98145.94;;;13.96;90.98
5455;BME280;2750;49.050;9.250;2023-04-22T03:22:34;98154.00;;;13.80;91.66
5455;BME280;2750;49.050;9.250;2023-04-22T03:27:37;98146.72;;;13.73;92.31
5455;BME280;2750;49.050;9.250;2023-04-22T03:32:40;98159.44;;;13.90;91.17
5455;BME280;2750;49.050;9.250;2023-04-22T03:37:41;98152.59;;;13.51;91.50
5455;BME280;2750;49.050;9.250;2023-04-22T03:42:44;98158.22;;;13.70;91.80
5455;BME280;2750;49.050;9.250;2023-04-22T03:47:45;98151.97;;;13.60;91.60
5455;BME280;2750;49.050;9.250;2023-04-22T03:52:47;98147.47;;;13.62;91.39
5455;BME280;2750;49.050;9.250;2023-04-22T03:57:49;98142.44;;;13.84;90.36
5455;BME280;2750;49.050;9.250;2023-04-22T04:02:51;98134.44;;;13.62;91.22
5455;BME280;2750;49.050;9.250;2023-04-22T04:07:52;98141.56;;;13.48;91.53
5455;BME280;2750;49.050;9.250;2023-04-22T04:12:55;98140.84;;;12.81;93.49
5455;BME280;2750;49.050;9.250;2023-04-22T04:17:57;98137.72;;;12.88;93.22
5455;BME280;2750;49.050;9.250;2023-04-22T04:23:00;98141.75;;;13.19;92.27
5455;BME280;2750;49.050;9.250;2023-04-22T04:28:03;98133.22;;;13.30;92.07
5455;BME280;2750;49.050;9.250;2023-04-22T04:33:08;98130.00;;;13.14;91.50
5455;BME280;2750;49.050;9.250;2023-04-22T04:38:11;98133.69;;;12.97;91.71
5455;BME280;2750;49.050;9.250;2023-04-22T04:43:14;98135.19;;;13.14;91.40
5455;BME280;2750;49.050;9.250;2023-04-22T04:48:17;98133.78;;;12.95;92.19
5455;BME280;2750;49.050;9.250;2023-04-22T04:53:20;98130.50;;;13.44;91.25
5455;BME280;2750;49.050;9.250;2023-04-22T04:58:23;98128.72;;;13.57;90.64
5455;BME280;2750;49.050;9.250;2023-04-22T05:03:24;98135.91;;;13.54;89.91
5455;BME280;2750;49.050;9.250;2023-04-22T05:08:26;98134.00;;;13.68;89.54
5455;BME280;2750;49.050;9.250;2023-04-22T05:13:29;98135.38;;;13.74;88.90
5455;BME280;2750;49.050;9.250;2023-04-22T05:18:30;98145.50;;;13.53;89.88
5455;BME280;2750;49.050;9.250;2023-04-22T05:23:32;98138.22;;;13.20;91.47
5455;BME280;2750;49.050;9.250;2023-04-22T05:28:34;98127.66;;;12.84;93.27
5455;BME280;2750;49.050;9.250;2023-04-22T05:33:36;98131.09;;;12.97;92.63
5455;BME280;2750;49.050;9.250;2023-04-22T05:38:37;98136.34;;;13.10;92.39
5455;BME280;2750;49.050;9.250;2023-04-22T05:43:40;98133.75;;;13.10;92.71
5455;BME280;2750;49.050;9.250;2023-04-22T05:48:42;98130.59;;;13.68;91.44
5455;BME280;2750;49.050;9.250;2023-04-22T05:53:43;98129.97;;;14.01;89.41
5455;BME280;2750;49.050;9.250;2023-04-22T05:58:46;98135.00;;;14.40;87.47
5455;BME280;2750;49.050;9.250;2023-04-22T06:03:47;98136.56;;;14.77;87.01
5455;BME280;2750;49.050;9.250;2023-04-22T06:08:49;98143.63;;;15.56;84.13
5455;BME280;2750;49.050;9.250;2023-04-22T06:13:52;98144.19;;;16.69;81.06
5455;BME280;2750;49.050;9.250;2023-04-22T06:18:53;98131.69;;;17.96;78.24
5455;BME280;2750;49.050;9.250;2023-04-22T06:23:54;98139.50;;;17.56;77.71
5455;BME280;2750;49.050;9.250;2023-04-22T06:28:57;98143.13;;;17.34;78.48
5455;BME280;2750;49.050;9.250;2023-04-22T06:33:59;98145.75;;;17.55;77.94
5455;BME280;2750;49.050;9.250;2023-04-22T06:39:00;98152.47;;;17.06;79.05
5455;BME280;2750;49.050;9.250;2023-04-22T06:44:04;98143.09;;;18.25;77.75
5455;BME280;2750;49.050;9.250;2023-04-22T06:49:06;98161.03;;;18.60;75.51
5455;BME280;2750;49.050;9.250;2023-04-22T06:54:07;98158.31;;;19.66;72.76
5455;BME280;2750;49.050;9.250;2023-04-22T06:59:10;98156.41;;;20.22;70.88
5455;BME280;2750;49.050;9.250;2023-04-22T07:04:11;98149.63;;;20.20;70.18
5455;BME280;2750;49.050;9.250;2023-04-22T07:09:13;98143.00;;;20.61;69.60
5455;BME280;2750;49.050;9.250;2023-04-22T07:14:16;98148.72;;;20.38;70.78
5455;BME280;2750;49.050;9.250;2023-04-22T07:19:17;98147.09;;;20.00;69.62
5455;BME280;2750;49.050;9.250;2023-04-22T07:24:19;98139.47;;;19.61;70.68
5455;BME280;2750;49.050;9.250;2023-04-22T07:29:21;98130.63;;;21.14;66.70
5455;BME280;2750;49.050;9.250;2023-04-22T07:34:23;98110.88;;;23.10;61.88
5455;BME280;2750;49.050;9.250;2023-04-22T07:39:25;98114.41;;;25.49;58.54
5455;BME280;2750;49.050;9.250;2023-04-22T07:44:27;98112.88;;;25.84;56.12
5455;BME280;2750;49.050;9.250;2023-04-22T07:49:29;98107.66;;;25.76;57.82
5455;BME280;2750;49.050;9.250;2023-04-22T07:54:31;98100.78;;;24.24;59.40
5455;BME280;2750;49.050;9.250;2023-04-22T07:59:33;98104.28;;;24.47;57.96
5455;BME280;2750;49.050;9.250;2023-04-22T08:04:35;98107.34;;;23.97;59.02
5455;BME280;2750;49.050;9.250;2023-04-22T08:09:37;98105.19;;;25.89;55.58
5455;BME280;2750;49.050;9.250;2023-04-22T08:14:40;98109.00;;;26.31;55.21
5455;BME280;2750;49.050;9.250;2023-04-22T08:19:41;98110.88;;;25.86;55.64
5455;BME280;2750;49.050;9.250;2023-04-22T08:24:43;98118.09;;;25.92;54.65
5455;BME280;2750;49.050;9.250;2023-04-22T08:29:46;98126.75;;;24.90;57.81
5455;BME280;2750;49.050;9.250;2023-04-22T08:34:47;98120.53;;;24.75;57.58
5455;BME280;2750;49.050;9.250;2023-04-22T08:39:49;98121.81;;;24.56;57.37
5455;BME280;2750;49.050;9.250;2023-04-22T08:44:52;98123.19;;;25.35;57.18
5455;BME280;2750;49.050;9.250;2023-04-22T08:49:54;98115.81;;;26.19;55.72
5455;BME280;2750;49.050;9.250;2023-04-22T08:54:56;98108.56;;;27.05;54.01
5455;BME280;2750;49.050;9.250;2023-04-22T08:59:59;98108.84;;;27.73;52.47
5455;BME280;2750;49.050;9.250;2023-04-22T09:05:01;98108.25;;;27.77;52.49
5455;BME280;2750;49.050;9.250;2023-04-22T09:10:04;98100.63;;;27.40;53.28
5455;BME280;2750;49.050;9.250;2023-04-22T09:15:10;98103.22;;;26.63;54.99
5455;BME280;2750;49.050;9.250;2023-04-22T09:20:12;98095.47;;;27.38;53.91
5455;BME280;2750;49.050;9.250;2023-04-22T09:25:16;98097.38;;;26.95;54.54
5455;BME280;2750;49.050;9.250;2023-04-22T09:30:22;98093.00;;;26.67;54.36
5455;BME280;2750;49.050;9.250;2023-04-22T09:35:28;98084.97;;;27.58;53.63
5455;BME280;2750;49.050;9.250;2023-04-22T09:40:30;98088.94;;;27.13;52.72
5455;BME280;2750;49.050;9.250;2023-04-22T09:45:34;98078.13;;;26.93;53.06
5455;BME280;2750;49.050;9.250;2023-04-22T09:50:37;98086.28;;;27.13;52.71
5455;BME280;2750;49.050;9.250;2023-04-22T09:55:41;98078.97;;;26.58;52.72
5455;BME280;2750;49.050;9.250;2023-04-22T10:00:47;98082.59;;;26.29;52.87
5455;BME280;2750;49.050;9.250;2023-04-22T10:05:48;98078.19;;;27.28;51.89
5455;BME280;2750;49.050;9.250;2023-04-22T10:10:50;98069.13;;;26.94;51.80
5455;BME280;2750;49.050;9.250;2023-04-22T10:15:54;98056.13;;;26.63;50.98
5455;BME280;2750;49.050;9.250;2023-04-22T10:20:58;98054.75;;;26.53;51.40
5455;BME280;2750;49.050;9.250;2023-04-22T10:26:00;98044.34;;;27.00;49.62
5455;BME280;2750;49.050;9.250;2023-04-22T10:31:19;98049.97;;;27.40;51.29
5455;BME280;2750;49.050;9.250;2023-04-22T10:36:22;98041.13;;;27.67;49.08
5455;BME280;2750;49.050;9.250;2023-04-22T10:41:24;98039.88;;;28.11;49.16
5455;BME280;2750;49.050;9.250;2023-04-22T10:46:58;98037.06;;;28.32;48.92
5455;BME280;2750;49.050;9.250;2023-04-22T10:52:00;98031.72;;;28.38;47.57
5455;BME280;2750;49.050;9.250;2023-04-22T10:57:04;98025.78;;;28.43;48.32
5455;BME280;2750;49.050;9.250;2023-04-22T11:02:08;98017.25;;;28.07;47.19
5455;BME280;2750;49.050;9.250;2023-04-22T11:07:12;98019.34;;;27.64;46.54
5455;BME280;2750;49.050;9.250;2023-04-22T11:12:42;98013.81;;;27.65;48.02
5455;BME280;2750;49.050;9.250;2023-04-22T11:17:47;98021.81;;;27.72;48.11
5455;BME280;2750;49.050;9.250;2023-04-22T11:22:51;98007.44;;;28.14;47.70
5455;BME280;2750;49.050;9.250;2023-04-22T11:27:53;98006.56;;;28.07;46.61
5455;BME280;2750;49.050;9.250;2023-04-22T11:32:58;98001.13;;;28.28;46.84
5455;BME280;2750;49.050;9.250;2023-04-22T11:38:01;97997.38;;;28.16;46.37
5455;BME280;2750;49.050;9.250;2023-04-22T11:43:04;97994.41;;;28.78;44.74
5455;BME280;2750;49.050;9.250;2023-04-22T11:48:09;97981.81;;;29.75;43.53
5455;BME280;2750;49.050;9.250;2023-04-22T11:53:15;97985.88;;;29.47;44.11
5455;BME280;2750;49.050;9.250;2023-04-22T11:58:19;97976.72;;;30.12;43.47
5455;BME280;2750;49.050;9.250;2023-04-22T12:03:25;97976.88;;;30.55;42.41
5455;BME280;2750;49.050;9.250;2023-04-22T12:08:30;97979.72;;;29.90;42.80
5455;BME280;2750;49.050;9.250;2023-04-22T12:13:40;97977.31;;;29.05;43.45
5455;BME280;2750;49.050;9.250;2023-04-22T12:34:14;97957.47;;;29.97;43.85
5455;BME280;2750;49.050;9.250;2023-04-22T12:39:16;97956.41;;;29.98;44.01
5455;BME280;2750;49.050;9.250;2023-04-22T12:44:18;97965.00;;;30.06;44.47
5455;BME280;2750;49.050;9.250;2023-04-22T12:49:20;97957.94;;;30.18;43.19
5455;BME280;2750;49.050;9.250;2023-04-22T12:54:22;97954.44;;;30.74;43.17
5455;BME280;2750;49.050;9.250;2023-04-22T12:59:24;97953.75;;;32.06;42.61
5455;BME280;2750;49.050;9.250;2023-04-22T13:04:26;97943.34;;;32.39;41.06
5455;BME280;2750;49.050;9.250;2023-04-22T13:09:28;97941.44;;;31.87;42.09
5455;BME280;2750;49.050;9.250;2023-04-22T13:14:30;97942.88;;;30.98;42.40
5455;BME280;2750;49.050;9.250;2023-04-22T13:19:33;97942.00;;;30.30;43.72
5455;BME280;2750;49.050;9.250;2023-04-22T13:24:34;97953.31;;;27.25;50.42
5455;BME280;2750;49.050;9.250;2023-04-22T13:29:36;97962.56;;;25.88;53.30
5455;BME280;2750;49.050;9.250;2023-04-22T13:34:39;97972.91;;;25.47;54.06
5455;BME280;2750;49.050;9.250;2023-04-22T13:39:42;97991.59;;;24.58;57.04
5455;BME280;2750;49.050;9.250;2023-04-22T13:44:43;97976.06;;;24.32;58.20
5455;BME280;2750;49.050;9.250;2023-04-22T13:49:47;97979.50;;;24.18;59.25
5455;BME280;2750;49.050;9.250;2023-04-22T13:54:48;97982.75;;;24.43;56.47
5455;BME280;2750;49.050;9.250;2023-04-22T13:59:50;97977.09;;;24.23;53.92
5455;BME280;2750;49.050;9.250;2023-04-22T14:04:53;97982.72;;;24.88;52.80
5455;BME280;2750;49.050;9.250;2023-04-22T14:09:54;97974.56;;;25.48;51.88
5455;BME280;2750;49.050;9.250;2023-04-22T14:14:55;97966.91;;;26.10;52.32
5455;BME280;2750;49.050;9.250;2023-04-22T14:19:58;97970.31;;;25.83;51.68
5455;BME280;2750;49.050;9.250;2023-04-22T14:25:00;97965.63;;;26.21;51.25
5455;BME280;2750;49.050;9.250;2023-04-22T14:30:02;97968.56;;;26.54;50.36
5455;BME280;2750;49.050;9.250;2023-04-22T14:35:06;97966.09;;;27.01;49.74
5455;BME280;2750;49.050;9.250;2023-04-22T14:40:08;97959.00;;;27.22;50.70
5455;BME280;2750;49.050;9.250;2023-04-22T14:45:11;97963.84;;;27.93;49.59
5455;BME280;2750;49.050;9.250;2023-04-22T14:50:15;97960.88;;;27.69;48.91
5455;BME280;2750;49.050;9.250;2023-04-22T14:55:17;97950.47;;;27.80;49.44
5455;BME280;2750;49.050;9.250;2023-04-22T15:00:18;97957.31;;;29.14;47.54
5455;BME280;2750;49.050;9.250;2023-04-22T15:05:21;97948.03;;;29.87;45.38
5455;BME280;2750;49.050;9.250;2023-04-22T15:10:23;97947.56;;;29.53;45.23
5455;BME280;2750;49.050;9.250;2023-04-22T15:15:25;97952.81;;;29.72;45.19
5455;BME280;2750;49.050;9.250;2023-04-22T15:20:28;97948.19;;;29.48;45.76
5455;BME280;2750;49.050;9.250;2023-04-22T15:25:30;97955.53;;;28.49;47.59
5455;BME280;2750;49.050;9.250;2023-04-22T15:30:32;97957.16;;;29.03;46.54
5455;BME280;2750;49.050;9.250;2023-04-22T15:35:35;97952.66;;;28.44;47.22
5455;BME280;2750;49.050;9.250;2023-04-22T15:40:36;97955.91;;;28.33;47.25
5455;BME280;2750;49.050;9.250;2023-04-22T15:45:37;97952.91;;;27.75;48.71
5455;BME280;2750;49.050;9.250;2023-04-22T15:50:40;97945.03;;;27.47;48.93
5455;BME280;2750;49.050;9.250;2023-04-22T15:55:42;97945.06;;;27.20;49.39
5455;BME280;2750;49.050;9.250;2023-04-22T16:00:43;97943.81;;;27.16;49.70
5455;BME280;2750;49.050;9.250;2023-04-22T16:05:46;97950.19;;;26.38;51.49
5455;BME280;2750;49.050;9.250;2023-04-22T16:10:48;97951.41;;;26.35;50.80
5455;BME280;2750;49.050;9.250;2023-04-22T16:15:49;97948.78;;;25.99;50.78
5455;BME280;2750;49.050;9.250;2023-04-22T16:20:52;97953.94;;;25.65;52.21
5455;BME280;2750;49.050;9.250;2023-04-22T16:25:54;97958.19;;;25.45;53.32
5455;BME280;2750;49.050;9.250;2023-04-22T16:30:55;97970.97;;;24.22;56.64
5455;BME280;2750;49.050;9.250;2023-04-22T16:35:58;97965.28;;;23.80;54.64
5455;BME280;2750;49.050;9.250;2023-04-22T16:41:00;97974.44;;;23.69;56.41
5455;BME280;2750;49.050;9.250;2023-04-22T16:46:01;97971.22;;;23.51;56.40
5455;BME280;2750;49.050;9.250;2023-04-22T16:51:04;97971.75;;;23.77;55.94
5455;BME280;2750;49.050;9.250;2023-04-22T16:56:06;97976.81;;;23.95;56.79
5455;BME280;2750;49.050;9.250;2023-04-22T17:01:07;97974.94;;;24.26;56.71
5455;BME280;2750;49.050;9.250;2023-04-22T17:06:10;97973.38;;;24.55;56.66
5455;BME280;2750;49.050;9.250;2023-04-22T17:11:12;97979.56;;;24.02;57.16
5455;BME280;2750;49.050;9.250;2023-04-22T17:16:13;97975.94;;;23.72;57.43
5455;BME280;2750;49.050;9.250;2023-04-22T17:21:16;97990.03;;;23.17;56.92
5455;BME280;2750;49.050;9.250;2023-04-22T17:26:18;97995.41;;;22.85;58.82
5455;BME280;2750;49.050;9.250;2023-04-22T17:31:19;97992.72;;;23.09;58.56
5455;BME280;2750;49.050;9.250;2023-04-22T17:36:22;98003.16;;;23.11;58.63
5455;BME280;2750;49.050;9.250;2023-04-22T17:41:24;97999.81;;;23.17;59.82
5455;BME280;2750;49.050;9.250;2023-04-22T17:46:25;98001.28;;;23.11;60.40
5455;BME280;2750;49.050;9.250;2023-04-22T17:51:28;97999.41;;;23.36;60.15
5455;BME280;2750;49.050;9.250;2023-04-22T17:56:30;98008.59;;;23.01;60.77
5455;BME280;2750;49.050;9.250;2023-04-22T18:01:32;98011.25;;;23.09;60.86
5455;BME280;2750;49.050;9.250;2023-04-22T18:06:34;98018.91;;;22.80;60.88
5455;BME280;2750;49.050;9.250;2023-04-22T18:11:36;98024.31;;;22.46;61.79
5455;BME280;2750;49.050;9.250;2023-04-22T18:16:37;98041.03;;;22.22;62.76
5455;BME280;2750;49.050;9.250;2023-04-22T18:21:40;98043.72;;;21.88;63.13
5455;BME280;2750;49.050;9.250;2023-04-22T18:26:42;98056.94;;;21.55;61.12
5455;BME280;2750;49.050;9.250;2023-04-22T18:31:46;98060.56;;;21.02;61.43
5455;BME280;2750;49.050;9.250;2023-04-22T18:36:49;98066.88;;;20.83;60.48
5455;BME280;2750;49.050;9.250;2023-04-22T18:41:51;98070.41;;;20.92;60.90
5455;BME280;2750;49.050;9.250;2023-04-22T18:46:52;98077.75;;;21.06;60.67
5455;BME280;2750;49.050;9.250;2023-04-22T18:51:56;98090.94;;;20.80;61.60
5455;BME280;2750;49.050;9.250;2023-04-22T18:56:57;98091.69;;;20.10;61.36
5455;BME280;2750;49.050;9.250;2023-04-22T19:01:59;98104.41;;;19.70;62.71
5455;BME280;2750;49.050;9.250;2023-04-22T19:07:02;98116.19;;;19.66;64.12
5455;BME280;2750;49.050;9.250;2023-04-22T19:12:03;98130.72;;;19.04;66.45
5455;BME280;2750;49.050;9.250;2023-04-22T19:17:05;98145.94;;;18.91;68.63
5455;BME280;2750;49.050;9.250;2023-04-22T19:22:08;98148.00;;;19.06;69.56
5455;BME280;2750;49.050;9.250;2023-04-22T19:27:11;98153.66;;;19.21;69.14
5455;BME280;2750;49.050;9.250;2023-04-22T19:32:13;98156.47;;;19.20;69.01
5455;BME280;2750;49.050;9.250;2023-04-22T19:37:16;98163.09;;;18.76;71.09
5455;BME280;2750;49.050;9.250;2023-04-22T19:42:17;98160.47;;;18.76;72.74
5455;BME280;2750;49.050;9.250;2023-04-22T19:47:20;98161.44;;;18.55;72.94
5455;BME280;2750;49.050;9.250;2023-04-22T19:52:23;98152.31;;;18.79;73.38
5455;BME280;2750;49.050;9.250;2023-04-22T19:57:25;98166.97;;;18.72;74.54
5455;BME280;2750;49.050;9.250;2023-04-22T20:02:27;98153.13;;;18.60;77.10
5455;BME280;2750;49.050;9.250;2023-04-22T20:07:30;98154.19;;;18.38;78.92
5455;BME280;2750;49.050;9.250;2023-04-22T20:12:33;98132.81;;;18.03;80.45
5455;BME280;2750;49.050;9.250;2023-04-22T20:17:35;98131.69;;;17.96;81.73
5455;BME280;2750;49.050;9.250;2023-04-22T20:22:40;98141.25;;;17.66;83.85
5455;BME280;2750;49.050;9.250;2023-04-22T20:27:42;98144.34;;;17.30;86.93
5455;BME280;2750;49.050;9.250;2023-04-22T20:32:44;98152.13;;;17.41;87.64
5455;BME280;2750;49.050;9.250;2023-04-22T20:37:47;98147.91;;;17.29;87.50
5455;BME280;2750;49.050;9.250;2023-04-22T20:42:50;98133.47;;;17.14;86.61
5455;BME280;2750;49.050;9.250;2023-04-22T20:47:51;98116.72;;;17.26;86.58
5455;BME280;2750;49.050;9.250;2023-04-22T20:52:54;98121.34;;;17.13;86.13
5455;BME280;2750;49.050;9.250;2023-04-22T20:57:56;98122.22;;;17.23;87.79
5455;BME280;2750;49.050;9.250;2023-04-22T21:02:58;98116.59;;;17.28;88.16
5455;BME280;2750;49.050;9.250;2023-04-22T21:08:03;98112.00;;;16.99;88.32
5455;BME280;2750;49.050;9.250;2023-04-22T21:13:08;98124.38;;;16.77;88.46
5455;BME280;2750;49.050;9.250;2023-04-22T21:18:11;98121.06;;;16.75;88.27
5455;BME280;2750;49.050;9.250;2023-04-22T21:23:16;98131.22;;;16.68;87.85
5455;BME280;2750;49.050;9.250;2023-04-22T21:28:19;98129.88;;;16.73;87.45
5455;BME280;2750;49.050;9.250;2023-04-22T21:33:20;98128.03;;;16.85;87.64
5455;BME280;2750;49.050;9.250;2023-04-22T21:38:24;98124.19;;;17.10;86.74
5455;BME280;2750;49.050;9.250;2023-04-22T21:43:25;98143.19;;;17.02;87.36
5455;BME280;2750;49.050;9.250;2023-04-22T21:48:27;98141.56;;;17.01;88.05
5455;BME280;2750;49.050;9.250;2023-04-22T21:53:29;98152.25;;;16.78;89.89
5455;BME280;2750;49.050;9.250;2023-04-22T21:58:31;98153.00;;;17.00;88.57
5455;BME280;2750;49.050;9.250;2023-04-22T22:03:33;98160.22;;;17.08;88.52
5455;BME280;2750;49.050;9.250;2023-04-22T22:08:36;98157.72;;;17.06;87.01
5455;BME280;2750;49.050;9.250;2023-04-22T22:13:38;98150.41;;;17.10;88.92
5455;BME280;2750;49.050;9.250;2023-04-22T22:18:39;98151.88;;;17.44;86.49
5455;BME280;2750;49.050;9.250;2023-04-22T22:23:42;98147.53;;;17.54;85.52
5455;BME280;2750;49.050;9.250;2023-04-22T22:28:44;98142.53;;;17.51;85.62
5455;BME280;2750;49.050;9.250;2023-04-22T22:33:45;98150.47;;;17.40;87.88
5455;BME280;2750;49.050;9.250;2023-04-22T22:38:48;98152.84;;;17.23;88.37
5455;BME280;2750;49.050;9.250;2023-04-22T22:43:49;98156.31;;;17.44;86.91
5455;BME280;2750;49.050;9.250;2023-04-22T22:48:51;98152.41;;;17.38;86.93
5455;BME280;2750;49.050;9.250;2023-04-22T22:53:55;98145.75;;;17.34;87.05
5455;BME280;2750;49.050;9.250;2023-04-22T22:58:56;98142.63;;;17.19;88.22
5455;BME280;2750;49.050;9.250;2023-04-22T23:03:58;98137.88;;;17.13;87.59
5455;BME280;2750;49.050;9.250;2023-04-22T23:09:00;98131.00;;;17.12;86.86
5455;BME280;2750;49.050;9.250;2023-04-22T23:14:02;98134.63;;;17.00;86.81
5455;BME280;2750;49.050;9.250;2023-04-22T23:19:04;98114.28;;;17.34;85.67
5455;BME280;2750;49.050;9.250;2023-04-22T23:24:09;98120.34;;;17.35;86.84
5455;BME280;2750;49.050;9.250;2023-04-22T23:29:11;98119.28;;;17.16;86.19
5455;BME280;2750;49.050;9.250;2023-04-22T23:34:13;98118.81;;;16.91;86.04
5455;BME280;2750;49.050;9.250;2023-04-22T23:39:18;98120.28;;;17.25;85.25
5455;BME280;2750;49.050;9.250;2023-04-22T23:44:19;98108.41;;;17.21;85.30
5455;BME280;2750;49.050;9.250;2023-04-22T23:49:21;98114.19;;;17.45;85.42
5455;BME280;2750;49.050;9.250;2023-04-22T23:54:24;98110.47;;;17.48;86.09
5455;BME280;2750;49.050;9.250;2023-04-22T23:59:26;98105.44;;;17.35;86.24
